sensor_id;sensor_type;location;lat;lon;timestamp;pressure;altitude;pressure_sealevel;temperature;humidity
72124;BME280;63818;37.134;-8.548;2023-12-20T00:00:46;102850.4;;;11.9;66.6
72124;BME280;63818;37.134;-8.548;2023-12-20T00:05:34;102837.8;;;11.9;66.5
72124;BME280;63818;37.134;-8.548;2023-12-20T00:10:22;102821.3;;;11.9;66.7
72124;BME280;63818;37.134;-8.548;2023-12-20T00:15:13;102834.0;;;11.8;66.4
72124;BME280;63818;37.134;-8.548;2023-12-20T00:20:03;102830.6;;;11.5;66.6
72124;BME280;63818;37.134;-8.548;2023-12-20T00:24:52;102837.6;;;11.5;67.5
72124;BME280;63818;37.134;-8.548;2023-12-20T00:29:40;102833.5;;;11.5;67.4
72124;BME280;63818;37.134;-8.548;2023-12-20T00:34:30;102825.9;;;11.4;67.1
72124;BME280;63818;37.134;-8.548;2023-12-20T00:39:20;102821.1;;;11.4;67.6
72124;BME280;63818;37.134;-8.548;2023-12-20T00:44:08;102830.7;;;11.3;68.8
72124;BME280;63818;37.134;-8.548;2023-12-20T00:48:57;102832.0;;;11.3;69.9
72124;BME280;63818;37.134;-8.548;2023-12-20T00:53:48;102829.6;;;11.3;70.3
72124;BME280;63818;37.134;-8.548;2023-12-20T00:58:36;102813.2;;;11.2;70.5
72124;BME280;63818;37.134;-8.548;2023-12-20T01:03:24;102805.6;;;11.3;71.4
72124;BME280;63818;37.134;-8.548;2023-12-20T01:08:11;102808.3;;;11.2;71.1
72124;BME280;63818;37.134;-8.548;2023-12-20T01:17:52;102799.3;;;11.1;70.7
72124;BME280;63818;37.134;-8.548;2023-12-20T01:22:42;102788.6;;;11.1;71.0
72124;BME280;63818;37.134;-8.548;2023-12-20T01:27:30;102792.4;;;11.1;70.7
72124;BME280;63818;37.134;-8.548;2023-12-20T01:32:18;102797.9;;;11.0;70.4
72124;BME280;63818;37.134;-8.548;2023-12-20T01:37:10;102806.0;;;11.0;70.3
72124;BME280;63818;37.134;-8.548;2023-12-20T01:46:52;102785.1;;;11.1;70.8
72124;BME280;63818;37.134;-8.548;2023-12-20T01:51:40;102779.0;;;11.2;70.8
72124;BME280;63818;37.134;-8.548;2023-12-20T01:56:28;102780.2;;;11.0;69.5
72124;BME280;63818;37.134;-8.548;2023-12-20T02:01:19;102781.2;;;10.9;69.4
72124;BME280;63818;37.134;-8.548;2023-12-20T02:06:08;102782.2;;;10.8;69.4
72124;BME280;63818;37.134;-8.548;2023-12-20T02:10:56;102779.3;;;10.8;70.0
72124;BME280;63818;37.134;-8.548;2023-12-20T02:15:44;102772.1;;;10.9;69.9
72124;BME280;63818;37.134;-8.548;2023-12-20T02:20:33;102775.7;;;11.1;70.6
72124;BME280;63818;37.134;-8.548;2023-12-20T02:25:21;102787.8;;;11.1;71.1
72124;BME280;63818;37.134;-8.548;2023-12-20T02:30:12;102793.8;;;11.2;70.7
72124;BME280;63818;37.134;-8.548;2023-12-20T02:35:01;102783.8;;;11.2;71.4
72124;BME280;63818;37.134;-8.548;2023-12-20T02:39:49;102790.3;;;11.2;71.2
72124;BME280;63818;37.134;-8.548;2023-12-20T02:44:37;102795.1;;;11.1;70.5
72124;BME280;63818;37.134;-8.548;2023-12-20T02:49:25;102786.5;;;11.1;72.0
72124;BME280;63818;37.134;-8.548;2023-12-20T02:54:25;102780.3;;;11.1;71.2
72124;BME280;63818;37.134;-8.548;2023-12-20T02:59:17;102777.9;;;11.2;71.1
72124;BME280;63818;37.134;-8.548;2023-12-20T03:05:56;102773.9;;;11.2;72.1
72124;BME280;63818;37.134;-8.548;2023-12-20T03:10:40;102778.2;;;11.3;72.8
72124;BME280;63818;37.134;-8.548;2023-12-20T03:15:27;102777.2;;;11.4;72.8
72124;BME280;63818;37.134;-8.548;2023-12-20T03:20:17;102775.6;;;11.4;73.8
72124;BME280;63818;37.134;-8.548;2023-12-20T03:25:05;102772.7;;;11.5;73.9
72124;BME280;63818;37.134;-8.548;2023-12-20T03:29:53;102783.8;;;11.8;77.1
72124;BME280;63818;37.134;-8.548;2023-12-20T03:39:43;102767.2;;;11.8;77.2
72124;BME280;63818;37.134;-8.548;2023-12-20T03:44:32;102771.7;;;11.8;77.4
72124;BME280;63818;37.134;-8.548;2023-12-20T03:49:20;102767.4;;;11.8;78.0
72124;BME280;63818;37.134;-8.548;2023-12-20T03:54:10;102767.2;;;11.8;78.6
72124;BME280;63818;37.134;-8.548;2023-12-20T03:58:59;102785.5;;;11.8;79.1
72124;BME280;63818;37.134;-8.548;2023-12-20T04:03:47;102770.4;;;11.9;79.8
72124;BME280;63818;37.134;-8.548;2023-12-20T04:08:35;102771.8;;;11.9;80.4
72124;BME280;63818;37.134;-8.548;2023-12-20T04:13:25;102771.2;;;11.9;81.1
72124;BME280;63818;37.134;-8.548;2023-12-20T04:18:13;102778.3;;;12.0;81.8
72124;BME280;63818;37.134;-8.548;2023-12-20T04:23:00;102763.4;;;12.0;82.7
72124;BME280;63818;37.134;-8.548;2023-12-20T04:27:48;102765.6;;;12.0;84.0
72124;BME280;63818;37.134;-8.548;2023-12-20T04:32:36;102754.0;;;12.0;83.9
72124;BME280;63818;37.134;-8.548;2023-12-20T04:37:24;102761.6;;;12.1;84.5
72124;BME280;63818;37.134;-8.548;2023-12-20T04:42:14;102765.6;;;12.1;85.5
72124;BME280;63818;37.134;-8.548;2023-12-20T04:51:55;102763.8;;;12.2;87.4
72124;BME280;63818;37.134;-8.548;2023-12-20T04:56:46;102768.6;;;12.3;88.5
72124;BME280;63818;37.134;-8.548;2023-12-20T05:01:36;102766.2;;;12.2;89.0
72124;BME280;63818;37.134;-8.548;2023-12-20T05:06:26;102761.3;;;12.3;89.5
72124;BME280;63818;37.134;-8.548;2023-12-20T05:16:09;102753.3;;;12.3;90.5
72124;BME280;63818;37.134;-8.548;2023-12-20T05:21:02;102745.2;;;12.3;91.3
72124;BME280;63818;37.134;-8.548;2023-12-20T05:25:53;102739.2;;;12.4;91.9
72124;BME280;63818;37.134;-8.548;2023-12-20T05:30:41;102750.8;;;12.3;92.0
72124;BME280;63818;37.134;-8.548;2023-12-20T05:35:29;102746.8;;;12.3;92.0
72124;BME280;63818;37.134;-8.548;2023-12-20T05:40:17;102747.1;;;12.2;92.2
72124;BME280;63818;37.134;-8.548;2023-12-20T05:45:05;102727.9;;;12.2;92.8
72124;BME280;63818;37.134;-8.548;2023-12-20T05:49:55;102731.7;;;12.2;93.0
72124;BME280;63818;37.134;-8.548;2023-12-20T05:54:43;102725.5;;;12.2;93.0
72124;BME280;63818;37.134;-8.548;2023-12-20T05:59:31;102722.8;;;12.2;93.1
72124;BME280;63818;37.134;-8.548;2023-12-20T06:04:21;102718.8;;;12.1;93.5
72124;BME280;63818;37.134;-8.548;2023-12-20T06:09:09;102714.4;;;12.2;94.2
72124;BME280;63818;37.134;-8.548;2023-12-20T06:13:57;102723.3;;;12.3;94.6
72124;BME280;63818;37.134;-8.548;2023-12-20T06:18:45;102733.1;;;12.4;95.2
72124;BME280;63818;37.134;-8.548;2023-12-20T06:23:33;102744.6;;;12.5;95.7
72124;BME280;63818;37.134;-8.548;2023-12-20T06:28:21;102747.3;;;12.6;96.3
72124;BME280;63818;37.134;-8.548;2023-12-20T06:33:11;102746.8;;;12.7;96.1
72124;BME280;63818;37.134;-8.548;2023-12-20T06:38:01;102756.2;;;12.8;96.5
72124;BME280;63818;37.134;-8.548;2023-12-20T06:42:49;102768.6;;;12.9;96.9
72124;BME280;63818;37.134;-8.548;2023-12-20T06:47:37;102771.0;;;12.8;97.0
72124;BME280;63818;37.134;-8.548;2023-12-20T06:52:25;102781.8;;;12.8;96.5
72124;BME280;63818;37.134;-8.548;2023-12-20T06:57:13;102777.0;;;12.8;97.3
72124;BME280;63818;37.134;-8.548;2023-12-20T07:02:06;102771.0;;;12.7;97.5
72124;BME280;63818;37.134;-8.548;2023-12-20T07:06:54;102778.9;;;12.8;97.8
72124;BME280;63818;37.134;-8.548;2023-12-20T07:11:42;102774.0;;;12.7;98.0
72124;BME280;63818;37.134;-8.548;2023-12-20T07:16:30;102781.3;;;12.7;98.3
72124;BME280;63818;37.134;-8.548;2023-12-20T07:21:19;102778.6;;;12.7;98.8
72124;BME280;63818;37.134;-8.548;2023-12-20T07:26:09;102767.3;;;12.7;99.0
72124;BME280;63818;37.134;-8.548;2023-12-20T07:30:57;102771.3;;;12.7;99.3
72124;BME280;63818;37.134;-8.548;2023-12-20T07:35:45;102777.8;;;12.7;99.8
72124;BME280;63818;37.134;-8.548;2023-12-20T07:40:35;102758.4;;;12.7;100.0
72124;BME280;63818;37.134;-8.548;2023-12-20T07:45:24;102754.3;;;12.7;100.0
72124;BME280;63818;37.134;-8.548;2023-12-20T07:50:12;102756.5;;;12.7;100.0
72124;BME280;63818;37.134;-8.548;2023-12-20T07:55:01;102747.0;;;12.8;100.0
72124;BME280;63818;37.134;-8.548;2023-12-20T07:59:48;102740.8;;;12.8;100.0
72124;BME280;63818;37.134;-8.548;2023-12-20T08:04:38;102743.3;;;12.7;100.0
72124;BME280;63818;37.134;-8.548;2023-12-20T08:09:26;102746.8;;;12.7;100.0
72124;BME280;63818;37.134;-8.548;2023-12-20T08:14:15;102738.7;;;12.7;100.0
72124;BME280;63818;37.134;-8.548;2023-12-20T08:19:05;102735.4;;;12.9;100.0
72124;BME280;63818;37.134;-8.548;2023-12-20T08:23:53;102730.9;;;12.9;100.0
72124;BME280;63818;37.134;-8.548;2023-12-20T08:28:41;102731.9;;;12.9;100.0
72124;BME280;63818;37.134;-8.548;2023-12-20T08:33:30;102727.8;;;12.9;100.0
72124;BME280;63818;37.134;-8.548;2023-12-20T08:38:18;102720.3;;;12.9;100.0
72124;BME280;63818;37.134;-8.548;2023-12-20T08:43:06;102721.7;;;13.0;100.0
72124;BME280;63818;37.134;-8.548;2023-12-20T08:48:01;102732.5;;;12.9;100.0
72124;BME280;63818;37.134;-8.548;2023-12-20T08:52:50;102725.5;;;12.9;100.0
72124;BME280;63818;37.134;-8.548;2023-12-20T08:57:40;102730.3;;;12.9;100.0
72124;BME280;63818;37.134;-8.548;2023-12-20T09:02:29;102729.2;;;13.0;100.0
72124;BME280;63818;37.134;-8.548;2023-12-20T09:07:26;102740.8;;;13.0;100.0
72124;BME280;63818;37.134;-8.548;2023-12-20T09:12:13;102744.0;;;13.0;100.0
72124;BME280;63818;37.134;-8.548;2023-12-20T09:17:01;102743.8;;;13.1;100.0
72124;BME280;63818;37.134;-8.548;2023-12-20T09:21:52;102750.2;;;13.2;100.0
72124;BME280;63818;37.134;-8.548;2023-12-20T09:26:40;102754.0;;;13.3;100.0
72124;BME280;63818;37.134;-8.548;2023-12-20T09:31:30;102743.4;;;13.4;100.0
72124;BME280;63818;37.134;-8.548;2023-12-20T09:36:20;102740.1;;;13.6;100.0
72124;BME280;63818;37.134;-8.548;2023-12-20T09:41:08;102751.9;;;13.6;100.0
72124;BME280;63818;37.134;-8.548;2023-12-20T09:46:00;102742.5;;;13.7;100.0
72124;BME280;63818;37.134;-8.548;2023-12-20T09:50:48;102750.3;;;13.7;100.0
72124;BME280;63818;37.134;-8.548;2023-12-20T09:55:36;102758.3;;;13.8;100.0
72124;BME280;63818;37.134;-8.548;2023-12-20T10:01:09;102749.6;;;14.0;100.0
72124;BME280;63818;37.134;-8.548;2023-12-20T10:06:00;102747.9;;;14.0;100.0
72124;BME280;63818;37.134;-8.548;2023-12-20T10:10:53;102753.1;;;14.0;100.0
72124;BME280;63818;37.134;-8.548;2023-12-20T10:15:41;102754.1;;;14.2;100.0
72124;BME280;63818;37.134;-8.548;2023-12-20T10:20:30;102756.1;;;14.2;100.0
72124;BME280;63818;37.134;-8.548;2023-12-20T10:25:22;102752.9;;;14.2;100.0
72124;BME280;63818;37.134;-8.548;2023-12-20T10:30:10;102748.9;;;14.2;100.0
72124;BME280;63818;37.134;-8.548;2023-12-20T10:35:05;102757.8;;;14.1;100.0
72124;BME280;63818;37.134;-8.548;2023-12-20T10:39:54;102760.8;;;14.2;100.0
72124;BME280;63818;37.134;-8.548;2023-12-20T10:44:47;102743.5;;;14.2;100.0
72124;BME280;63818;37.134;-8.548;2023-12-20T10:49:37;102744.1;;;14.2;100.0
72124;BME280;63818;37.134;-8.548;2023-12-20T10:54:25;102731.6;;;14.2;100.0
72124;BME280;63818;37.134;-8.548;2023-12-20T10:59:21;102726.0;;;14.1;100.0
72124;BME280;63818;37.134;-8.548;2023-12-20T11:04:18;102710.9;;;14.3;100.0
72124;BME280;63818;37.134;-8.548;2023-12-20T11:09:14;102711.7;;;14.4;100.0
72124;BME280;63818;37.134;-8.548;2023-12-20T11:14:07;102710.9;;;14.4;100.0
72124;BME280;63818;37.134;-8.548;2023-12-20T11:19:12;102709.3;;;14.4;100.0
72124;BME280;63818;37.134;-8.548;2023-12-20T11:24:01;102700.6;;;14.4;100.0
72124;BME280;63818;37.134;-8.548;2023-12-20T11:28:52;102683.9;;;14.4;100.0
72124;BME280;63818;37.134;-8.548;2023-12-20T11:33:40;102666.8;;;14.4;100.0
72124;BME280;63818;37.134;-8.548;2023-12-20T11:43:35;102665.4;;;14.5;100.0
72124;BME280;63818;37.134;-8.548;2023-12-20T11:48:28;102644.2;;;14.6;100.0
72124;BME280;63818;37.134;-8.548;2023-12-20T11:53:17;102633.6;;;14.6;100.0
72124;BME280;63818;37.134;-8.548;2023-12-20T11:58:09;102617.0;;;14.7;100.0
72124;BME280;63818;37.134;-8.548;2023-12-20T12:02:58;102612.8;;;14.6;100.0
72124;BME280;63818;37.134;-8.548;2023-12-20T12:07:46;102604.9;;;14.6;100.0
72124;BME280;63818;37.134;-8.548;2023-12-20T12:12:34;102583.2;;;14.7;98.7
72124;BME280;63818;37.134;-8.548;2023-12-20T12:17:32;102577.5;;;14.7;97.6
72124;BME280;63818;37.134;-8.548;2023-12-20T12:22:20;102575.6;;;14.7;96.8
72124;BME280;63818;37.134;-8.548;2023-12-20T12:27:08;102566.0;;;14.6;96.6
72124;BME280;63818;37.134;-8.548;2023-12-20T12:31:56;102563.7;;;14.5;95.1
72124;BME280;63818;37.134;-8.548;2023-12-20T12:36:44;102559.2;;;14.4;94.3
72124;BME280;63818;37.134;-8.548;2023-12-20T12:41:32;102540.5;;;14.4;93.3
72124;BME280;63818;37.134;-8.548;2023-12-20T12:46:21;102533.5;;;14.4;92.0
72124;BME280;63818;37.134;-8.548;2023-12-20T12:51:11;102525.0;;;14.5;90.3
72124;BME280;63818;37.134;-8.548;2023-12-20T12:56:01;102517.4;;;14.5;89.7
72124;BME280;63818;37.134;-8.548;2023-12-20T13:00:52;102508.9;;;14.6;89.1
72124;BME280;63818;37.134;-8.548;2023-12-20T13:05:40;102511.3;;;14.6;89.5
72124;BME280;63818;37.134;-8.548;2023-12-20T13:10:35;102498.9;;;14.6;89.5
72124;BME280;63818;37.134;-8.548;2023-12-20T13:15:23;102482.2;;;14.6;89.2
72124;BME280;63818;37.134;-8.548;2023-12-20T13:20:12;102477.8;;;14.6;88.8
72124;BME280;63818;37.134;-8.548;2023-12-20T13:25:00;102479.5;;;14.6;88.3
72124;BME280;63818;37.134;-8.548;2023-12-20T13:29:50;102470.8;;;14.6;88.7
72124;BME280;63818;37.134;-8.548;2023-12-20T13:34:38;102474.9;;;14.5;88.7
72124;BME280;63818;37.134;-8.548;2023-12-20T13:39:28;102466.3;;;14.5;88.9
72124;BME280;63818;37.134;-8.548;2023-12-20T13:44:16;102472.2;;;14.5;88.8
72124;BME280;63818;37.134;-8.548;2023-12-20T13:49:04;102447.9;;;14.5;88.2
72124;BME280;63818;37.134;-8.548;2023-12-20T13:53:54;102441.6;;;14.6;88.4
72124;BME280;63818;37.134;-8.548;2023-12-20T13:58:42;102431.7;;;14.9;87.5
72124;BME280;63818;37.134;-8.548;2023-12-20T14:03:35;102424.9;;;15.1;86.4
72124;BME280;63818;37.134;-8.548;2023-12-20T14:08:23;102431.4;;;15.2;85.0
72124;BME280;63818;37.134;-8.548;2023-12-20T14:13:11;102432.0;;;15.5;84.1
72124;BME280;63818;37.134;-8.548;2023-12-20T14:18:01;102419.2;;;15.9;82.5
72124;BME280;63818;37.134;-8.548;2023-12-20T14:22:49;102419.3;;;16.0;81.1
72124;BME280;63818;37.134;-8.548;2023-12-20T14:27:37;102409.3;;;16.3;79.0
72124;BME280;63818;37.134;-8.548;2023-12-20T14:32:39;102404.2;;;16.3;76.2
72124;BME280;63818;37.134;-8.548;2023-12-20T14:37:27;102409.2;;;16.1;77.5
72124;BME280;63818;37.134;-8.548;2023-12-20T14:42:17;102417.6;;;15.7;78.6
72124;BME280;63818;37.134;-8.548;2023-12-20T14:47:05;102422.9;;;15.4;79.6
72124;BME280;63818;37.134;-8.548;2023-12-20T14:52:03;102437.5;;;15.3;80.7
72124;BME280;63818;37.134;-8.548;2023-12-20T14:56:51;102430.1;;;15.2;81.5
72124;BME280;63818;37.134;-8.548;2023-12-20T15:01:40;102435.4;;;15.1;81.7
72124;BME280;63818;37.134;-8.548;2023-12-20T15:06:28;102447.1;;;15.0;82.3
72124;BME280;63818;37.134;-8.548;2023-12-20T15:11:15;102443.4;;;15.0;82.1
72124;BME280;63818;37.134;-8.548;2023-12-20T15:16:04;102452.9;;;15.0;82.4
72124;BME280;63818;37.134;-8.548;2023-12-20T15:20:52;102440.8;;;14.9;82.5
72124;BME280;63818;37.134;-8.548;2023-12-20T15:25:44;102441.8;;;15.0;82.4
72124;BME280;63818;37.134;-8.548;2023-12-20T15:30:35;102439.4;;;15.0;82.4
72124;BME280;63818;37.134;-8.548;2023-12-20T15:35:23;102445.2;;;14.9;82.3
72124;BME280;63818;37.134;-8.548;2023-12-20T15:40:12;102451.2;;;14.9;82.6
72124;BME280;63818;37.134;-8.548;2023-12-20T15:45:07;102458.2;;;14.9;82.6
72124;BME280;63818;37.134;-8.548;2023-12-20T15:49:55;102467.9;;;14.9;82.3
72124;BME280;63818;37.134;-8.548;2023-12-20T15:54:50;102466.0;;;14.9;82.7
72124;BME280;63818;37.134;-8.548;2023-12-20T15:59:39;102468.4;;;14.9;82.6
72124;BME280;63818;37.134;-8.548;2023-12-20T16:04:29;102465.4;;;15.0;83.2
72124;BME280;63818;37.134;-8.548;2023-12-20T16:09:17;102454.7;;;15.0;83.0
72124;BME280;63818;37.134;-8.548;2023-12-20T16:14:09;102466.7;;;15.0;82.9
72124;BME280;63818;37.134;-8.548;2023-12-20T16:18:57;102466.5;;;15.0;82.9
72124;BME280;63818;37.134;-8.548;2023-12-20T16:23:45;102470.0;;;14.9;82.8
72124;BME280;63818;37.134;-8.548;2023-12-20T16:28:56;102469.0;;;14.9;83.0
72124;BME280;63818;37.134;-8.548;2023-12-20T16:33:44;102471.5;;;14.9;83.6
72124;BME280;63818;37.134;-8.548;2023-12-20T16:43:25;102486.4;;;14.8;84.5
72124;BME280;63818;37.134;-8.548;2023-12-20T16:48:16;102479.4;;;14.8;85.0
72124;BME280;63818;37.134;-8.548;2023-12-20T16:53:04;102489.2;;;14.8;85.4
72124;BME280;63818;37.134;-8.548;2023-12-20T16:57:52;102498.7;;;14.8;85.9
72124;BME280;63818;37.134;-8.548;2023-12-20T17:02:46;102500.1;;;14.7;86.3
72124;BME280;63818;37.134;-8.548;2023-12-20T17:07:35;102509.6;;;14.7;86.6
72124;BME280;63818;37.134;-8.548;2023-12-20T17:12:23;102511.5;;;14.7;87.1
72124;BME280;63818;37.134;-8.548;2023-12-20T17:17:13;102514.0;;;14.7;87.2
72124;BME280;63818;37.134;-8.548;2023-12-20T17:22:01;102525.6;;;14.7;87.3
72124;BME280;63818;37.134;-8.548;2023-12-20T17:26:49;102527.0;;;14.6;87.3
72124;BME280;63818;37.134;-8.548;2023-12-20T17:31:37;102540.0;;;14.6;86.9
72124;BME280;63818;37.134;-8.548;2023-12-20T17:36:27;102540.6;;;14.6;86.7
72124;BME280;63818;37.134;-8.548;2023-12-20T17:41:15;102534.7;;;14.6;86.5
72124;BME280;63818;37.134;-8.548;2023-12-20T17:46:06;102536.8;;;14.6;86.1
72124;BME280;63818;37.134;-8.548;2023-12-20T17:50:54;102548.5;;;14.5;85.6
72124;BME280;63818;37.134;-8.548;2023-12-20T17:55:42;102570.4;;;14.5;85.6
72124;BME280;63818;37.134;-8.548;2023-12-20T18:00:33;102572.9;;;14.4;85.2
72124;BME280;63818;37.134;-8.548;2023-12-20T18:05:23;102572.4;;;14.4;85.0
72124;BME280;63818;37.134;-8.548;2023-12-20T18:10:12;102570.3;;;14.4;84.8
72124;BME280;63818;37.134;-8.548;2023-12-20T18:19:53;102582.7;;;14.4;84.2
72124;BME280;63818;37.134;-8.548;2023-12-20T18:24:41;102581.9;;;14.4;84.4
72124;BME280;63818;37.134;-8.548;2023-12-20T18:29:36;102583.8;;;14.4;84.6
72124;BME280;63818;37.134;-8.548;2023-12-20T18:34:24;102602.5;;;14.3;84.4
72124;BME280;63818;37.134;-8.548;2023-12-20T18:39:14;102603.6;;;14.3;84.2
72124;BME280;63818;37.134;-8.548;2023-12-20T18:44:04;102596.1;;;14.3;84.4
72124;BME280;63818;37.134;-8.548;2023-12-20T18:48:52;102593.9;;;14.2;84.2
72124;BME280;63818;37.134;-8.548;2023-12-20T18:53:40;102604.7;;;14.2;84.1
72124;BME280;63818;37.134;-8.548;2023-12-20T18:58:28;102614.2;;;14.2;84.3
72124;BME280;63818;37.134;-8.548;2023-12-20T19:03:26;102600.2;;;14.2;84.2
72124;BME280;63818;37.134;-8.548;2023-12-20T19:08:14;102600.0;;;14.2;84.2
72124;BME280;63818;37.134;-8.548;2023-12-20T19:13:05;102596.7;;;14.1;83.9
72124;BME280;63818;37.134;-8.548;2023-12-20T19:17:53;102597.8;;;14.1;84.2
72124;BME280;63818;37.134;-8.548;2023-12-20T19:22:41;102606.2;;;14.1;83.9
72124;BME280;63818;37.134;-8.548;2023-12-20T19:27:29;102604.9;;;14.1;83.8
72124;BME280;63818;37.134;-8.548;2023-12-20T19:32:17;102621.1;;;14.1;84.0
72124;BME280;63818;37.134;-8.548;2023-12-20T19:37:08;102633.8;;;14.1;83.6
72124;BME280;63818;37.134;-8.548;2023-12-20T19:41:56;102623.6;;;14.1;83.5
72124;BME280;63818;37.134;-8.548;2023-12-20T19:46:46;102630.9;;;14.1;83.2
72124;BME280;63818;37.134;-8.548;2023-12-20T19:51:35;102639.0;;;14.1;83.1
72124;BME280;63818;37.134;-8.548;2023-12-20T19:56:26;102631.4;;;14.0;83.0
72124;BME280;63818;37.134;-8.548;2023-12-20T20:01:23;102639.3;;;14.0;83.2
72124;BME280;63818;37.134;-8.548;2023-12-20T20:06:11;102651.2;;;14.0;83.1
72124;BME280;63818;37.134;-8.548;2023-12-20T20:11:02;102647.7;;;14.0;83.0
72124;BME280;63818;37.134;-8.548;2023-12-20T20:15:50;102644.2;;;14.0;82.5
72124;BME280;63818;37.134;-8.548;2023-12-20T20:20:38;102656.1;;;14.0;82.1
72124;BME280;63818;37.134;-8.548;2023-12-20T20:25:32;102652.6;;;13.9;82.1
72124;BME280;63818;37.134;-8.548;2023-12-20T20:30:20;102663.4;;;13.9;81.8
72124;BME280;63818;37.134;-8.548;2023-12-20T20:35:08;102652.9;;;13.9;81.9
72124;BME280;63818;37.134;-8.548;2023-12-20T20:39:57;102655.9;;;13.9;81.4
72124;BME280;63818;37.134;-8.548;2023-12-20T20:44:47;102652.6;;;13.9;81.2
72124;BME280;63818;37.134;-8.548;2023-12-20T20:49:35;102661.0;;;13.9;81.6
72124;BME280;63818;37.134;-8.548;2023-12-20T20:54:23;102665.1;;;13.9;81.8
72124;BME280;63818;37.134;-8.548;2023-12-20T20:59:12;102661.3;;;13.9;81.6
72124;BME280;63818;37.134;-8.548;2023-12-20T21:08:53;102654.5;;;13.9;81.3
72124;BME280;63818;37.134;-8.548;2023-12-20T21:13:46;102664.0;;;13.9;81.0
72124;BME280;63818;37.134;-8.548;2023-12-20T21:18:34;102674.0;;;13.9;81.2
72124;BME280;63818;37.134;-8.548;2023-12-20T21:23:22;102659.6;;;13.9;80.8
72124;BME280;63818;37.134;-8.548;2023-12-20T21:28:15;102656.1;;;13.9;80.4
72124;BME280;63818;37.134;-8.548;2023-12-20T21:33:05;102647.8;;;13.9;80.4
72124;BME280;63818;37.134;-8.548;2023-12-20T21:37:53;102639.6;;;13.9;80.1
72124;BME280;63818;37.134;-8.548;2023-12-20T21:42:41;102648.0;;;13.9;80.2
72124;BME280;63818;37.134;-8.548;2023-12-20T21:47:29;102645.6;;;13.9;79.8
72124;BME280;63818;37.134;-8.548;2023-12-20T21:52:17;102645.9;;;13.9;79.7
72124;BME280;63818;37.134;-8.548;2023-12-20T21:57:05;102642.7;;;13.9;79.5
72124;BME280;63818;37.134;-8.548;2023-12-20T22:01:53;102653.5;;;13.9;79.3
72124;BME280;63818;37.134;-8.548;2023-12-20T22:06:43;102635.1;;;13.8;78.6
72124;BME280;63818;37.134;-8.548;2023-12-20T22:11:32;102631.1;;;13.8;77.5
72124;BME280;63818;37.134;-8.548;2023-12-20T22:16:24;102626.2;;;13.8;77.6
72124;BME280;63818;37.134;-8.548;2023-12-20T22:21:14;102623.5;;;13.8;76.6
72124;BME280;63818;37.134;-8.548;2023-12-20T22:26:02;102623.2;;;13.8;75.9
72124;BME280;63818;37.134;-8.548;2023-12-20T22:30:50;102626.2;;;13.8;75.0
72124;BME280;63818;37.134;-8.548;2023-12-20T22:35:38;102612.2;;;13.8;73.7
72124;BME280;63818;37.134;-8.548;2023-12-20T22:40:25;102607.6;;;13.8;73.0
72124;BME280;63818;37.134;-8.548;2023-12-20T22:45:13;102615.7;;;13.8;72.8
72124;BME280;63818;37.134;-8.548;2023-12-20T22:50:01;102616.8;;;13.7;72.0
72124;BME280;63818;37.134;-8.548;2023-12-20T22:54:49;102618.2;;;13.7;71.6
72124;BME280;63818;37.134;-8.548;2023-12-20T22:59:37;102622.2;;;13.7;71.5
72124;BME280;63818;37.134;-8.548;2023-12-20T23:04:28;102624.9;;;13.7;71.0
72124;BME280;63818;37.134;-8.548;2023-12-20T23:09:20;102623.6;;;13.7;70.8
72124;BME280;63818;37.134;-8.548;2023-12-20T23:14:08;102620.9;;;13.7;70.9
72124;BME280;63818;37.134;-8.548;2023-12-20T23:18:56;102613.9;;;13.7;70.6
72124;BME280;63818;37.134;-8.548;2023-12-20T23:23:48;102617.4;;;13.7;70.4
72124;BME280;63818;37.134;-8.548;2023-12-20T23:28:36;102626.6;;;13.7;70.0
72124;BME280;63818;37.134;-8.548;2023-12-20T23:33:26;102625.8;;;13.7;69.9
72124;BME280;63818;37.134;-8.548;2023-12-20T23:38:16;102630.6;;;13.7;70.5
72124;BME280;63818;37.134;-8.548;2023-12-20T23:47:58;102630.9;;;13.7;70.2
72124;BME280;63818;37.134;-8.548;2023-12-20T23:52:48;102628.2;;;13.6;70.3
72124;BME280;63818;37.134;-8.548;2023-12-20T23:57:40;102626.6;;;13.6;70.4
